createdAt,value
2022-09-02T00:07:22.322Z,0
2022-09-02T00:16:59.292Z,0
2022-09-02T00:36:13.506Z,0
2022-09-02T00:45:50.152Z,0
2022-09-02T00:55:26.784Z,0
2022-09-02T01:05:04.817Z,0
2022-09-02T01:24:16.491Z,0
2022-09-02T01:33:53.458Z,0
2022-09-02T01:43:30.093Z,0
2022-09-02T01:53:06.985Z,0
2022-09-02T02:02:44.012Z,0
2022-09-02T02:12:20.984Z,0
2022-09-02T02:21:57.770Z,0
2022-09-02T02:31:34.783Z,0
2022-09-02T02:41:11.686Z,0
2022-09-02T02:50:48.635Z,0
2022-09-02T03:00:25.570Z,0
2022-09-02T03:10:02.600Z,0
2022-09-02T03:19:39.328Z,0
2022-09-02T03:29:16.599Z,0
2022-09-02T03:38:53.587Z,0
2022-09-02T03:48:30.746Z,0
2022-09-02T03:58:08.743Z,0
2022-09-02T04:07:47.155Z,0
2022-09-02T04:17:21.870Z,0
2022-09-02T04:27:03.433Z,5.63
2022-09-02T04:55:49.650Z,33.75
2022-09-02T05:05:26.813Z,45
2022-09-02T05:15:04.143Z,56.25
2022-09-02T05:24:41.641Z,67.5
2022-09-02T05:34:19.024Z,73.13
2022-09-02T06:22:26.719Z,112.5
2022-09-02T06:41:41.978Z,123.75
2022-09-02T07:00:57.594Z,140.63
2022-09-02T07:10:35.294Z,151.88
2022-09-02T07:20:13.280Z,157.5
2022-09-02T07:29:50.715Z,163.13
2022-09-02T07:49:09.007Z,174.38
2022-09-02T07:58:44.709Z,180
2022-09-02T08:08:22.638Z,185.63
2022-09-02T08:18:01.010Z,191.25
2022-09-02T08:37:16.769Z,208.13
2022-09-02T08:46:55.376Z,213.75
2022-09-02T08:56:33.894Z,230.63
2022-09-02T09:06:12.859Z,241.88
2022-09-02T09:15:51.700Z,253.13
2022-09-02T09:25:30.416Z,247.5
2022-09-02T09:35:08.349Z,258.75
2022-09-02T09:44:47.162Z,382.5
2022-09-02T09:54:25.340Z,523.13
2022-09-02T10:13:52.956Z,2795.63
2022-09-02T10:23:48.048Z,3678.75
2022-09-02T10:33:38.772Z,3161.25
2022-09-02T10:43:26.729Z,2728.13
2022-09-02T11:12:20.315Z,3532.5
2022-09-02T11:31:10.519Z,433.13
2022-09-02T11:41:32.005Z,534.38
2022-09-02T11:59:54.523Z,545.63
2022-09-02T12:09:42.156Z,1726.88
2022-09-02T12:19:46.123Z,3791.25
2022-09-02T12:29:25.891Z,1665
2022-09-02T12:38:47.234Z,798.75
2022-09-02T12:48:17.558Z,495
2022-09-02T13:26:49.574Z,624.38
2022-09-02T13:36:23.447Z,714.38
2022-09-02T13:46:01.647Z,748.13
2022-09-02T13:55:45.118Z,1215
2022-09-02T14:05:23.589Z,748.13
2022-09-02T14:14:58.217Z,596.25
2022-09-02T14:24:33.763Z,596.25
2022-09-02T14:34:10.091Z,2823.75
2022-09-02T14:44:10.276Z,815.63
2022-09-02T14:53:42.977Z,635.63
2022-09-02T15:03:15.704Z,495
2022-09-02T15:22:25.917Z,348.75
2022-09-02T15:32:02.654Z,354.38
2022-09-02T15:41:39.576Z,371.25
2022-09-02T15:51:17.346Z,489.38
2022-09-02T16:00:54.695Z,315
2022-09-02T16:10:30.777Z,264.38
2022-09-02T16:20:07.736Z,264.38
2022-09-02T16:29:45.504Z,219.38
2022-09-02T16:39:22.152Z,151.88
2022-09-02T16:58:34.515Z,112.5
2022-09-02T17:17:47.577Z,61.88
2022-09-02T17:27:23.970Z,39.38
2022-09-02T17:37:00.687Z,22.5
2022-09-02T17:46:37.500Z,11.25
2022-09-02T17:56:13.856Z,5.63
2022-09-02T18:05:50.367Z,0
2022-09-02T18:25:03.878Z,0
2022-09-02T18:34:40.968Z,0
2022-09-02T18:53:55.247Z,0
2022-09-02T19:22:46.505Z,0
2022-09-02T19:32:23.624Z,0
2022-09-02T19:42:00.760Z,0
2022-09-02T20:01:15.185Z,0
2022-09-02T20:10:52.309Z,0
2022-09-02T20:20:29.669Z,0
2022-09-02T21:08:35.701Z,0
2022-09-02T21:18:13.184Z,0
2022-09-02T21:27:50.413Z,0
2022-09-02T21:37:27.502Z,0
2022-09-02T21:47:04.569Z,0
2022-09-02T21:56:41.882Z,0
2022-09-02T22:06:18.722Z,0
2022-09-02T22:15:55.654Z,0
2022-09-02T22:25:32.709Z,0
2022-09-02T22:35:09.299Z,0
2022-09-02T22:44:45.934Z,0
2022-09-02T22:54:22.663Z,0
2022-09-02T23:03:59.406Z,0
2022-09-02T23:13:35.880Z,0
2022-09-02T23:23:12.545Z,0
2022-09-02T23:42:26.099Z,0
2022-09-02T23:52:02.893Z,0
